WYC14 EGTB-EGBS

Flight info

Callsign WYC14
Flight time 0h 47m
Altitude 4000
Route VFR
Aircraft P28R/L-SDFG/S

Departure

Time 2026-04-27 13:32
Airport Wycombe Air Park (EGTB)

Arrival

Time 2026-04-27 14:20
Airport Shobdon Airfield (EGBS)
Time Latitude Longitude Altitude Speed Heading
2026-04-27 13:08 51.61099 -0.80171 513 ft 0 kts 273°
2026-04-27 13:25 51.61099 -0.80172 515 ft 0 kts 273°
2026-04-27 13:25 51.61100 -0.80175 515 ft 3 kts 278°
2026-04-27 13:26 51.61116 -0.80189 514 ft 6 kts
2026-04-27 13:26 51.61151 -0.80183 514 ft 5 kts
2026-04-27 13:26 51.61227 -0.80201 514 ft 16 kts 344°
2026-04-27 13:26 51.61292 -0.80225 516 ft 7 kts 24°
2026-04-27 13:27 51.61321 -0.80226 517 ft 0 kts 289°
2026-04-27 13:29 51.61321 -0.80229 517 ft 2 kts 292°
2026-04-27 13:29 51.61342 -0.80291 520 ft 9 kts 264°
2026-04-27 13:30 51.61334 -0.80329 521 ft 0 kts 242°
2026-04-27 13:30 51.61299 -0.80435 522 ft 34 kts 243°
2026-04-27 13:30 51.61115 -0.81015 526 ft 74 kts 255°
2026-04-27 13:31 51.60808 -0.81755 593 ft 85 kts 228°
2026-04-27 13:31 51.60421 -0.82490 750 ft 89 kts 230°
2026-04-27 13:31 51.59983 -0.83201 843 ft 96 kts 231°
2026-04-27 13:31 51.59590 -0.84051 978 ft 95 kts 233°
2026-04-27 13:32 51.59249 -0.84916 1081 ft 90 kts 241°
2026-04-27 13:32 51.58981 -0.85788 1298 ft 82 kts 249°
2026-04-27 13:32 51.58731 -0.86722 1407 ft 92 kts 259°
2026-04-27 13:32 51.58685 -0.87686 1586 ft 83 kts 291°
2026-04-27 13:33 51.59108 -0.88321 1728 ft 86 kts 341°
2026-04-27 13:33 51.59678 -0.88606 1951 ft 83 kts 333°
2026-04-27 13:33 51.60201 -0.89131 2101 ft 93 kts 326°
2026-04-27 13:33 51.60732 -0.89700 2293 ft 92 kts 324°
2026-04-27 13:34 51.61237 -0.90347 2574 ft 91 kts 319°
2026-04-27 13:34 51.61728 -0.90963 2770 ft 91 kts 324°
2026-04-27 13:34 51.62301 -0.91556 2787 ft 103 kts 338°
2026-04-27 13:34 51.63043 -0.91736 2809 ft 110 kts 358°
2026-04-27 13:35 51.63823 -0.91764 2814 ft 115 kts 360°
2026-04-27 13:35 51.64627 -0.91790 2816 ft 116 kts 359°
2026-04-27 13:35 51.65425 -0.91801 2832 ft 115 kts
2026-04-27 13:35 51.66227 -0.91799 2823 ft 114 kts
2026-04-27 13:36 51.67000 -0.91708 2864 ft 109 kts
2026-04-27 13:36 51.67767 -0.91874 2769 ft 117 kts 336°
2026-04-27 13:36 51.68416 -0.92543 2915 ft 105 kts 329°
2026-04-27 13:36 51.69066 -0.93169 2815 ft 116 kts 333°
2026-04-27 13:37 51.69777 -0.93748 2921 ft 110 kts 336°
2026-04-27 13:37 51.70471 -0.94280 2966 ft 114 kts 335°
2026-04-27 13:37 51.71168 -0.94875 3041 ft 110 kts 328°
2026-04-27 13:37 51.71773 -0.95633 3055 ft 114 kts 324°
2026-04-27 13:38 51.72368 -0.96466 3164 ft 108 kts 319°
2026-04-27 13:38 51.72938 -0.97290 3155 ft 116 kts 321°
2026-04-27 13:38 51.73545 -0.98109 3332 ft 107 kts 324°
2026-04-27 13:38 51.74164 -0.98837 3344 ft 115 kts 327°
2026-04-27 13:39 51.74793 -0.99562 3512 ft 107 kts 326°
2026-04-27 13:39 51.75417 -1.00308 3522 ft 117 kts 324°
2026-04-27 13:39 51.76041 -1.01087 3679 ft 109 kts 324°
2026-04-27 13:39 51.76665 -1.01835 3690 ft 116 kts 327°
2026-04-27 13:40 51.77336 -1.02552 3789 ft 114 kts 329°
2026-04-27 13:40 51.78009 -1.03219 3880 ft 113 kts 330°
2026-04-27 13:40 51.78668 -1.03895 3971 ft 111 kts 329°
2026-04-27 13:40 51.79320 -1.04582 3930 ft 118 kts 328°
2026-04-27 13:41 51.79966 -1.05320 4088 ft 107 kts 326°
2026-04-27 13:41 51.80576 -1.06078 4060 ft 116 kts 325°
2026-04-27 13:41 51.81183 -1.06858 4213 ft 107 kts 322°
2026-04-27 13:41 51.81807 -1.07698 4066 ft 123 kts 321°
2026-04-27 13:42 51.82391 -1.08576 4258 ft 111 kts 317°
2026-04-27 13:42 51.83018 -1.09517 4021 ft 131 kts 320°
2026-04-27 13:42 51.83712 -1.10376 4024 ft 127 kts 327°
2026-04-27 13:42 51.84458 -1.11174 3946 ft 129 kts 327°
2026-04-27 13:43 51.85181 -1.11985 3941 ft 125 kts 327°
2026-04-27 13:43 51.85928 -1.12728 3890 ft 127 kts 329°
2026-04-27 13:43 51.86677 -1.13432 3922 ft 123 kts 330°
2026-04-27 13:43 51.87399 -1.14159 3870 ft 123 kts 327°
2026-04-27 13:44 51.88117 -1.14963 3772 ft 127 kts 328°
2026-04-27 13:44 51.88889 -1.15617 3845 ft 121 kts 335°
2026-04-27 13:44 51.89650 -1.16182 3862 ft 123 kts 336°
2026-04-27 13:44 51.90439 -1.16763 3872 ft 122 kts 335°
2026-04-27 13:45 51.91148 -1.17459 3915 ft 120 kts 324°
2026-04-27 13:45 51.91761 -1.18389 3911 ft 121 kts 321°
2026-04-27 13:45 51.92398 -1.19240 3959 ft 120 kts 322°
2026-04-27 13:45 51.93017 -1.20118 4040 ft 117 kts 319°
2026-04-27 13:46 51.93574 -1.21087 4068 ft 118 kts 312°
2026-04-27 13:46 51.94171 -1.22004 4092 ft 118 kts 321°
2026-04-27 13:46 51.94797 -1.22889 4066 ft 122 kts 321°
2026-04-27 13:46 51.95430 -1.23795 4170 ft 118 kts 320°
2026-04-27 13:47 51.96057 -1.24683 4126 ft 123 kts 320°
2026-04-27 13:47 51.96728 -1.25569 4138 ft 124 kts 323°
2026-04-27 13:47 51.97414 -1.26419 4152 ft 125 kts 326°
2026-04-27 13:47 51.98110 -1.27222 4167 ft 124 kts 326°
2026-04-27 13:48 51.98819 -1.28035 4125 ft 125 kts 325°
2026-04-27 13:48 51.99506 -1.28923 4108 ft 125 kts 322°
2026-04-27 13:48 52.00173 -1.29784 4125 ft 124 kts 322°
2026-04-27 13:48 52.00879 -1.30660 4013 ft 128 kts 325°
2026-04-27 13:49 52.01579 -1.31468 4033 ft 123 kts 325°
2026-04-27 13:49 52.02291 -1.32323 3911 ft 128 kts 324°
2026-04-27 13:49 52.02953 -1.33231 3916 ft 125 kts 319°
2026-04-27 13:49 52.03633 -1.34066 3938 ft 119 kts 327°
2026-04-27 13:50 52.04111 -1.34538 3890 ft 122 kts 330°
2026-04-27 13:50 52.05064 -1.35486 3836 ft 125 kts 328°
2026-04-27 13:50 52.05568 -1.35987 3790 ft 125 kts 328°
2026-04-27 13:50 52.06270 -1.36741 3864 ft 117 kts 327°
2026-04-27 13:51 52.06877 -1.37614 3872 ft 118 kts 304°
2026-04-27 13:51 52.07051 -1.38911 3876 ft 123 kts 281°
2026-04-27 13:51 52.07203 -1.40298 3867 ft 119 kts 286°
2026-04-27 13:51 52.07359 -1.41625 3825 ft 122 kts 287°
2026-04-27 13:52 52.07546 -1.42947 3890 ft 119 kts 288°
2026-04-27 13:52 52.07708 -1.44300 3884 ft 126 kts 284°
2026-04-27 13:52 52.07868 -1.45670 4013 ft 118 kts 284°
2026-04-27 13:52 52.08042 -1.47003 3960 ft 125 kts 288°
2026-04-27 13:53 52.08444 -1.49646 3983 ft 126 kts 289°
2026-04-27 13:53 52.08685 -1.50984 4058 ft 120 kts 290°
2026-04-27 13:53 52.08894 -1.52302 4090 ft 121 kts 288°
2026-04-27 13:54 52.09061 -1.53654 4099 ft 123 kts 285°
2026-04-27 13:54 52.09206 -1.55025 4158 ft 121 kts 285°
2026-04-27 13:54 52.09331 -1.56358 4248 ft 119 kts 282°
2026-04-27 13:54 52.09484 -1.57685 4198 ft 124 kts 290°
2026-04-27 13:55 52.09691 -1.59059 4156 ft 129 kts 287°
2026-04-27 13:55 52.09868 -1.60524 4100 ft 133 kts 285°
2026-04-27 13:55 52.10034 -1.61968 4136 ft 128 kts 285°
2026-04-27 13:55 52.10188 -1.63430 4008 ft 135 kts 284°
2026-04-27 13:56 52.10357 -1.64902 3979 ft 132 kts 286°
2026-04-27 13:56 52.10536 -1.66369 3954 ft 131 kts 286°
2026-04-27 13:56 52.10715 -1.67834 3919 ft 134 kts 284°
2026-04-27 13:56 52.10909 -1.69319 3870 ft 133 kts 286°
2026-04-27 13:57 52.11098 -1.70790 3877 ft 133 kts 287°
2026-04-27 13:57 52.11313 -1.72237 3883 ft 131 kts 287°
2026-04-27 13:57 52.11525 -1.73665 3923 ft 130 kts 289°
2026-04-27 13:57 52.11719 -1.75088 3891 ft 131 kts 287°
2026-04-27 13:58 52.11895 -1.76530 3928 ft 128 kts 283°
2026-04-27 13:58 52.11956 -1.77989 3883 ft 131 kts 278°
2026-04-27 13:58 52.12206 -1.79349 3986 ft 118 kts 295°
2026-04-27 13:58 52.12576 -1.80580 3863 ft 128 kts 304°
2026-04-27 13:59 52.12905 -1.81938 3903 ft 125 kts 294°
2026-04-27 13:59 52.13175 -1.83251 3974 ft 123 kts 292°
2026-04-27 13:59 52.13451 -1.84625 3880 ft 132 kts 290°
2026-04-27 13:59 52.13677 -1.86095 3825 ft 134 kts 288°
2026-04-27 14:00 52.13910 -1.87572 3737 ft 135 kts 288°
2026-04-27 14:00 52.14144 -1.89051 3640 ft 135 kts 289°
2026-04-27 14:00 52.14364 -1.90535 3546 ft 135 kts 289°
2026-04-27 14:00 52.14579 -1.92017 3464 ft 135 kts 289°
2026-04-27 14:01 52.14800 -1.93500 3396 ft 135 kts 288°
2026-04-27 14:01 52.15019 -1.94972 3294 ft 135 kts 289°
2026-04-27 14:01 52.15217 -1.96479 3194 ft 137 kts 285°
2026-04-27 14:01 52.15355 -1.97980 3266 ft 133 kts 284°
2026-04-27 14:02 52.15484 -1.99422 3450 ft 124 kts 284°
2026-04-27 14:02 52.15638 -2.00801 3585 ft 121 kts 288°
2026-04-27 14:02 52.15835 -2.02081 3773 ft 117 kts 290°
2026-04-27 14:02 52.16054 -2.03365 3957 ft 113 kts 290°
2026-04-27 14:03 52.16285 -2.04621 3985 ft 124 kts 290°
2026-04-27 14:03 52.16584 -2.05969 3992 ft 124 kts 299°
2026-04-27 14:03 52.16828 -2.07316 3936 ft 128 kts 288°
2026-04-27 14:03 52.17004 -2.08725 3949 ft 126 kts 288°
2026-04-27 14:04 52.17197 -2.10120 3960 ft 127 kts 286°
2026-04-27 14:04 52.17340 -2.11548 3954 ft 127 kts 285°
2026-04-27 14:04 52.17563 -2.12915 3979 ft 124 kts 290°
2026-04-27 14:04 52.17788 -2.14264 3984 ft 124 kts 290°
2026-04-27 14:05 52.17941 -2.15665 4026 ft 127 kts 283°
2026-04-27 14:05 52.18037 -2.17082 4161 ft 125 kts 282°
2026-04-27 14:05 52.18121 -2.18501 4217 ft 127 kts 282°
2026-04-27 14:05 52.18082 -2.19942 4254 ft 132 kts 263°
2026-04-27 14:06 52.17941 -2.21416 4246 ft 131 kts 269°
2026-04-27 14:06 52.17794 -2.22878 4276 ft 131 kts 268°
2026-04-27 14:06 52.17745 -2.24368 4242 ft 132 kts 280°
2026-04-27 14:06 52.17842 -2.25807 4273 ft 126 kts 278°
2026-04-27 14:07 52.17854 -2.27262 4166 ft 132 kts 272°
2026-04-27 14:07 52.17712 -2.28741 4114 ft 131 kts 266°
2026-04-27 14:07 52.17603 -2.30204 4121 ft 128 kts 268°
2026-04-27 14:07 52.17539 -2.31658 4062 ft 131 kts 275°
2026-04-27 14:08 52.17547 -2.33123 4108 ft 125 kts 278°
2026-04-27 14:08 52.17571 -2.34551 4051 ft 129 kts 278°
2026-04-27 14:08 52.17550 -2.36005 4054 ft 128 kts 275°
2026-04-27 14:08 52.17503 -2.37447 4027 ft 130 kts 274°
2026-04-27 14:09 52.17462 -2.38905 4072 ft 127 kts 271°
2026-04-27 14:09 52.17386 -2.40353 3998 ft 130 kts 271°
2026-04-27 14:09 52.17335 -2.41823 3985 ft 130 kts 272°
2026-04-27 14:09 52.17327 -2.43284 3973 ft 128 kts 275°
2026-04-27 14:10 52.17253 -2.44746 3908 ft 130 kts 275°
2026-04-27 14:10 52.17369 -2.46171 3870 ft 122 kts 287°
2026-04-27 14:10 52.17470 -2.47569 3717 ft 128 kts 279°
2026-04-27 14:10 52.17484 -2.49039 3590 ft 129 kts 275°
2026-04-27 14:11 52.17479 -2.50463 3463 ft 128 kts 276°
2026-04-27 14:11 52.17511 -2.51926 3325 ft 128 kts 279°
2026-04-27 14:11 52.17575 -2.53359 3224 ft 127 kts 282°
2026-04-27 14:11 52.17664 -2.54796 3105 ft 128 kts 280°
2026-04-27 14:12 52.17729 -2.56245 2987 ft 128 kts 281°
2026-04-27 14:12 52.17786 -2.57689 2893 ft 127 kts 281°
2026-04-27 14:12 52.17888 -2.59101 2795 ft 125 kts 284°
2026-04-27 14:12 52.17984 -2.60507 2702 ft 124 kts 282°
2026-04-27 14:13 52.18043 -2.61943 2519 ft 129 kts 280°
2026-04-27 14:13 52.18100 -2.63390 2458 ft 125 kts 278°
2026-04-27 14:13 52.18127 -2.64816 2352 ft 126 kts 276°
2026-04-27 14:13 52.18158 -2.66225 2216 ft 128 kts 279°
2026-04-27 14:14 52.18228 -2.67680 2114 ft 127 kts 279°
2026-04-27 14:14 52.18247 -2.69114 2007 ft 126 kts 278°
2026-04-27 14:14 52.18276 -2.70515 1959 ft 121 kts 279°
2026-04-27 14:14 52.18330 -2.71893 1845 ft 124 kts 281°
2026-04-27 14:15 52.18335 -2.73351 1742 ft 130 kts 276°
2026-04-27 14:15 52.18423 -2.74742 1762 ft 118 kts 295°
2026-04-27 14:15 52.18806 -2.75850 1754 ft 108 kts 307°
2026-04-27 14:15 52.19216 -2.76892 1711 ft 109 kts 310°
2026-04-27 14:16 52.19667 -2.77891 1666 ft 110 kts 313°
2026-04-27 14:16 52.20142 -2.78816 1617 ft 101 kts 317°
2026-04-27 14:16 52.20614 -2.79618 1539 ft 94 kts 321°
2026-04-27 14:16 52.21134 -2.80222 1481 ft 88 kts 334°
2026-04-27 14:17 52.21644 -2.80697 1491 ft 81 kts 333°
2026-04-27 14:17 52.22114 -2.81133 1528 ft 77 kts 333°
2026-04-27 14:17 52.22595 -2.81518 1534 ft 77 kts 335°
2026-04-27 14:17 52.23069 -2.81928 1488 ft 77 kts 332°
2026-04-27 14:18 52.23568 -2.82383 1328 ft 85 kts 334°
2026-04-27 14:18 52.24049 -2.82942 1242 ft 85 kts 317°
2026-04-27 14:18 52.24220 -2.83890 1095 ft 87 kts 286°
2026-04-27 14:18 52.24270 -2.84832 881 ft 80 kts 284°
2026-04-27 14:19 52.24301 -2.85698 724 ft 74 kts 283°
2026-04-27 14:19 52.24275 -2.86537 513 ft 74 kts 276°
2026-04-27 14:19 52.24224 -2.87358 360 ft 72 kts 271°
2026-04-27 14:19 52.24168 -2.88104 314 ft 55 kts 262°
2026-04-27 14:20 52.24139 -2.88395 316 ft 6 kts 236°
2026-04-27 14:20 52.24146 -2.88405 316 ft 5 kts 33°
2026-04-27 14:20 52.24149 -2.88374 316 ft 10 kts 87°
2026-04-27 14:20 52.24154 -2.88254 316 ft 7 kts 88°
2026-04-27 14:21 52.24159 -2.88208 315 ft 9 kts 81°
2026-04-27 14:21 52.24166 -2.88130 315 ft 4 kts 89°
2026-04-27 14:21 52.24194 -2.88099 312 ft 7 kts
2026-04-27 14:21 52.24239 -2.88115 315 ft 7 kts 347°
2026-04-27 14:22 52.24261 -2.88123 312 ft 3 kts 346°
2026-04-27 14:22 52.24269 -2.88127 315 ft 0 kts 338°